Terminal Aerodrome Forecast
Issued by NWS

Home | Current Version | Previous Version | Text Only | Print | Product List | Glossary On
Versions: 1 2 3 4 5 6 7 8 9 10 11 12 13 14 15 16 17 18 19
357
FTUS43 KJKL 042320
TAFSJS
TAF
KSJS 042320Z 0500/0524 VRB03KT P6SM VCSH OVC035
     FM050200 VRB03KT 6SM BR VCSH OVC030
     FM050300 VRB03KT 3SM -RA OVC008
     FM050600 00000KT 1SM -DZ OVC008
     FM051500 00000KT P6SM BKN010
     FM051800 VRB03KT P6SM BKN050=

USA.gov is the U.S. government's official web portal to all federal, state and local government web resources and services.